AirNav   Bose ProFlight Series 2 Headset
 
 562 users online  

9I0 Havana Regional Airport
Havana, Illinois, USA

GOING TO HAVANA?


FAA INFORMATION EFFECTIVE 26 MARCH 2020

Location

FAA Identifier: 9I0
Lat/Long: 40-13-21.6950N 090-01-22.0150W
40-13.361583N 090-01.366917W
40.2226931,-90.0227819
(estimated)
Elevation: 499 ft. / 152.1 m (surveyed)
Variation: 01E (1985)
From city: 5 miles SE of HAVANA, IL
Time zone: UTC -5 (UTC -6 during Standard Time)
Zip code: 62644

Airport Operations

Airport use: Open to the public
Activation date: 03/1985
Control tower: no
ARTCC: KANSAS CITY CENTER
FSS: KANKAKEE FLIGHT SERVICE STATION
NOTAMs facility: IKK (NOTAM-D service available)
Attendance: IREG
Wind indicator: lighted
Segmented circle: no
Beacon: white-green (lighted land airport)
Operates sunset to sunrise.

Airport Communications

CTAF: 122.9

Nearby radio navigation aids

VOR radial/distance  VOR name  Freq  Var
SPIr326/27.9SPINNER VORTAC112.7001W
PIAr197/29.4PEORIA VORTAC115.2004E

 
NDB name  Hdg/Dist  Freq  Var  ID
MACOMB125/30.325101EJZY .--- --.. -.--
ABRAHAM277/31.632900EAAA .- .- .-

Airport Services

Fuel available: 100LL
SELF SVC FUEL AVBL 24 HRS.
Parking: tiedowns

Runway Information

Runway 9/27

Dimensions: 2235 x 100 ft. / 681 x 30 m
Surface: turf, in good condition
Runway edge lights: medium intensity
RUNWAY 9  RUNWAY 27
Latitude: 40-13.360833N40-13.362333N
Longitude: 090-01.607000W090-01.126833W
Elevation: 485.5 ft.488.2 ft.
Traffic pattern: leftleft
Touchdown point: yes, no lightsyes, no lights

Airport Ownership and Management from official FAA records

Ownership: Publicly-owned
Owner: HAVANA REGIONAL PORT DISTRICT
17787 SHERWOOD FOREST RD
HAVANA, IL 62644
Phone (217) 725-0628
Manager: BOB MARTIN
18206 QUIVER BEACH RD
HAVANA, IL 62644-6895
Phone 309-543-9006
EMAIL ADDRESS: FLYBYEWIRE@GMAIL.COM (ALL LOWER CASE)

Airport Operational Statistics

Aircraft based on the field: 15
Single engine airplanes: 13
Ultralights: 2
    
Aircraft operations: avg 27/week *
71% local general aviation
29% transient general aviation
* for 12-month period ending 30 April 2017

Additional Remarks

9 FT CROPS E OF RY 27 THLD - SEASONAL.
FOR CD CTC SPRINGFIELD APCH AT 217-535-1425. WHEN SPRINGFIELD APCH IS CLSD, CTC KANSAS CITY ARTCC AT 913-254-8508.

Instrument Procedures

There are no published instrument procedures at 9I0.

Some nearby airports with instrument procedures:

KCTK - Ingersoll Airport (21 nm N)
C15 - Pekin Municipal Airport (22 nm NE)
KSPI - Abraham Lincoln Capital Airport (28 nm SE)
KIJX - Jacksonville Municipal Airport (29 nm S)
KPIA - General Downing - Peoria International Airport (30 nm NE)
 
Loc | Ops | Rwys | IFR | FBO | Links
Com | Nav | Svcs | Stats | Notes
Area around 9I0 (Havana Regional Airport)
 
Road maps at: MapQuest Bing Google
 
Aerial photo
WARNING: Photo may not be current or correct
Aerial photo of 9I0 (Havana Regional Airport)
Taken mid June 2008

Do you have a better or more recent aerial photo of Havana Regional Airport that you would like to share? If so, please send us your photo.

 
Sectional chart

 
Airport distance calculator
Flying to Havana Regional Airport? Find the distance to fly.

From to 9I0

Sunrise and sunset
Times for 28-Mar-2020
 Local
(UTC-5)
 Zulu
(UTC)
Morning civil twilight06:2311:23
Sunrise06:5011:50
Sunset19:2000:20
Evening civil twilight19:4700:47

Current date and time
Zulu (UTC)  29-Mar-2020 03:39:50
Local (UTC-5)  28-Mar-2020 22:39:50
 
METAR
KSPI 
27nm SE 
290252Z AUTO 24014G29KT 10SM BKN042 BKN050 OVC070 16/09 A2956 RMK AO2 PK WND 25031/0223 WSHFT 0216 SLP006 T01610089 53011
KIJX 
29nm S 
290315Z AUTO 23011KT 10SM CLR 15/06 A2956 RMK AO2 T01520056
KPIA 
31nm NE 
290254Z 24013KT 10SM FEW060 17/11 A2949 RMK AO2 PK WND 23032/0203 RAE17 TSE11 SLP987 P0016 60016 T01670106 53004 $
KAAA 
32nm E 
290315Z AUTO 22006KT 10SM SCT021 BKN047 OVC075 17/10 A2955 RMK AO2 T01650097
KMQB 
34nm NW 
290315Z AUTO 23017G23KT 10SM CLR 14/06 A2952 RMK AO2 T01440056
KI63 
39nm W 
290315Z AUTO 23014G25KT 10SM CLR 17/04 A2953 RMK AO2 T01650035
KGBG 
47nm NW 
290315Z AUTO 22014G19KT 10SM CLR 14/04 A2948 RMK AO2 T01400041
KPPQ 
50nm SW 
290315Z AUTO 23012KT 10SM CLR 17/05 A2958 RMK AO2 T01670049
TAF
KSPI 
27nm SE 
290212Z 2902/2924 19020G30KT P6SM VCTS SCT025 BKN035CB TEMPO 2902/2903 23025G35KT 2SM TSRA OVC025CB FM290300 22017G27KT P6SM SCT050 WS020/23045KT FM290700 23018G28KT P6SM SCT250 FM290900 24021G35KT P6SM BKN028 FM291600 26023G36KT P6SM SCT040
KPIA 
31nm NE 
290207Z 2902/2924 22018G26KT 3SM TSRA BR SCT015 BKN035CB TEMPO 2902/2903 24025G35KT 1SM +TSRA BR OVC015CB FM290300 22016G26KT P6SM SCT050 WS020/23045KT FM290900 24021G35KT P6SM BKN023 FM292000 27024G38KT P6SM BKN035
NOTAMs
Click for the latest NOTAMs
NOTAMs are issued by the DoD/FAA and will open in a separate window not controlled by AirNav.

 

 
 

FBO, Fuel Providers, and Aircraft Ground Support

  
 Business Name 
 
 Contact 
 
 Services / Description 
 
Fuel Prices
 
Comments
  
Havana Regional Airport 309-543-9006
[web site]
[email]
Aviation fuel, Aircraft parking (ramp or tiedown)

More info about Havana Regional Airport
100LL
SS $4.89 
 Updated 21-Aug-2018
 
   1 read write
SS=Self service
Update Fuel Prices
 

Would you like to see your business listed on this page?

 If your business provides an interesting product or service to pilots, flight crews, aircraft, or users of the Havana Regional Airport, you should consider listing it here.  To start the listing process, click on the button below
 
Add a business
 

Other Pages about Havana Regional Airport

www.havanaregionalairport.com
 
Update a link
 
Copyright © AirNav, LLC. All rights reserved. Privacy Policy  Contact